sensor_id;sensor_type;location;lat;lon;timestamp;pressure;altitude;pressure_sealevel;temperature;humidity
85140;BME280;75501;52.586;13.284;2024-02-26T00:02:28;100006.22;;;4.26;73.60
85140;BME280;75501;52.586;13.284;2024-02-26T00:04:56;100009.41;;;4.33;73.36
85140;BME280;75501;52.586;13.284;2024-02-26T00:07:24;100000.25;;;4.34;73.45
85140;BME280;75501;52.586;13.284;2024-02-26T00:09:52;100001.34;;;4.33;73.24
85140;BME280;75501;52.586;13.284;2024-02-26T00:12:20;99999.72;;;4.32;73.34
85140;BME280;75501;52.586;13.284;2024-02-26T00:14:49;99993.63;;;4.17;73.97
85140;BME280;75501;52.586;13.284;2024-02-26T00:17:17;99991.75;;;4.12;74.06
85140;BME280;75501;52.586;13.284;2024-02-26T00:19:46;99981.53;;;4.09;74.46
85140;BME280;75501;52.586;13.284;2024-02-26T00:22:14;99980.53;;;4.00;74.37
85140;BME280;75501;52.586;13.284;2024-02-26T00:24:43;99988.34;;;3.96;74.75
85140;BME280;75501;52.586;13.284;2024-02-26T00:27:11;99978.91;;;3.94;74.79
85140;BME280;75501;52.586;13.284;2024-02-26T00:29:39;99979.22;;;3.87;74.83
85140;BME280;75501;52.586;13.284;2024-02-26T00:32:07;99979.47;;;3.91;74.82
85140;BME280;75501;52.586;13.284;2024-02-26T00:34:35;99975.41;;;3.93;74.94
85140;BME280;75501;52.586;13.284;2024-02-26T00:37:05;99967.09;;;3.90;75.09
85140;BME280;75501;52.586;13.284;2024-02-26T00:39:33;99967.63;;;3.87;75.25
85140;BME280;75501;52.586;13.284;2024-02-26T00:42:01;99975.75;;;3.77;75.55
85140;BME280;75501;52.586;13.284;2024-02-26T00:44:29;99976.81;;;3.76;75.72
85140;BME280;75501;52.586;13.284;2024-02-26T00:46:58;99969.59;;;3.71;75.97
85140;BME280;75501;52.586;13.284;2024-02-26T00:49:26;99968.31;;;3.54;76.48
85140;BME280;75501;52.586;13.284;2024-02-26T00:51:54;99969.09;;;3.59;76.41
85140;BME280;75501;52.586;13.284;2024-02-26T00:54:23;99974.22;;;3.40;77.12
85140;BME280;75501;52.586;13.284;2024-02-26T00:56:51;99977.19;;;3.44;77.16
85140;BME280;75501;52.586;13.284;2024-02-26T00:59:20;99972.06;;;3.47;76.94
85140;BME280;75501;52.586;13.284;2024-02-26T01:01:48;99971.00;;;3.48;76.95
85140;BME280;75501;52.586;13.284;2024-02-26T01:04:16;99969.38;;;3.47;77.04
85140;BME280;75501;52.586;13.284;2024-02-26T01:06:44;99969.38;;;3.53;76.96
85140;BME280;75501;52.586;13.284;2024-02-26T01:09:12;99970.44;;;3.57;77.24
85140;BME280;75501;52.586;13.284;2024-02-26T01:11:41;99964.81;;;3.53;77.33
85140;BME280;75501;52.586;13.284;2024-02-26T01:14:09;99973.16;;;3.46;77.96
85140;BME280;75501;52.586;13.284;2024-02-26T01:16:37;99970.44;;;3.51;78.09
85140;BME280;75501;52.586;13.284;2024-02-26T01:19:05;99968.06;;;3.50;77.99
85140;BME280;75501;52.586;13.284;2024-02-26T01:21:34;99965.34;;;3.55;78.12
85140;BME280;75501;52.586;13.284;2024-02-26T01:24:02;99970.75;;;3.45;78.48
85140;BME280;75501;52.586;13.284;2024-02-26T01:26:30;99963.78;;;3.34;78.30
85140;BME280;75501;52.586;13.284;2024-02-26T01:29:00;99969.97;;;3.34;78.58
85140;BME280;75501;52.586;13.284;2024-02-26T01:31:27;99967.81;;;3.31;78.76
85140;BME280;75501;52.586;13.284;2024-02-26T01:33:55;99964.56;;;3.34;79.04
85140;BME280;75501;52.586;13.284;2024-02-26T01:36:23;99968.06;;;3.35;78.98
85140;BME280;75501;52.586;13.284;2024-02-26T01:38:52;99961.91;;;3.39;78.48
85140;BME280;75501;52.586;13.284;2024-02-26T01:41:20;99969.97;;;3.34;78.59
85140;BME280;75501;52.586;13.284;2024-02-26T01:43:48;99969.97;;;3.34;78.72
85140;BME280;75501;52.586;13.284;2024-02-26T01:46:17;99964.06;;;3.32;78.64
85140;BME280;75501;52.586;13.284;2024-02-26T01:48:46;99960.31;;;3.28;78.69
85140;BME280;75501;52.586;13.284;2024-02-26T01:51:17;99953.00;;;3.34;78.81
85140;BME280;75501;52.586;13.284;2024-02-26T01:53:45;99958.16;;;3.25;78.72
85140;BME280;75501;52.586;13.284;2024-02-26T01:56:14;99951.16;;;3.29;78.53
85140;BME280;75501;52.586;13.284;2024-02-26T01:58:45;99956.28;;;3.26;78.99
85140;BME280;75501;52.586;13.284;2024-02-26T02:01:17;99954.13;;;3.18;79.30
85140;BME280;75501;52.586;13.284;2024-02-26T02:03:50;99955.22;;;3.12;80.29
85140;BME280;75501;52.586;13.284;2024-02-26T02:06:18;99947.13;;;3.27;79.71
85140;BME280;75501;52.586;13.284;2024-02-26T02:08:48;99953.88;;;3.14;80.18
85140;BME280;75501;52.586;13.284;2024-02-26T02:11:16;99952.25;;;3.13;80.09
85140;BME280;75501;52.586;13.284;2024-02-26T02:13:45;99949.03;;;3.16;80.01
85140;BME280;75501;52.586;13.284;2024-02-26T02:16:13;99954.91;;;3.23;78.96
85140;BME280;75501;52.586;13.284;2024-02-26T02:18:43;99954.91;;;3.23;79.54
85140;BME280;75501;52.586;13.284;2024-02-26T02:21:12;99949.53;;;3.28;79.14
85140;BME280;75501;52.586;13.284;2024-02-26T02:23:40;99958.69;;;3.17;79.11
85140;BME280;75501;52.586;13.284;2024-02-26T02:26:13;99958.69;;;3.12;79.17
85140;BME280;75501;52.586;13.284;2024-02-26T02:28:42;99961.66;;;3.06;79.34
85140;BME280;75501;52.586;13.284;2024-02-26T02:31:10;99951.72;;;3.06;78.97
85140;BME280;75501;52.586;13.284;2024-02-26T02:33:38;99954.44;;;3.01;78.91
85140;BME280;75501;52.586;13.284;2024-02-26T02:36:07;99953.09;;;2.88;79.40
85140;BME280;75501;52.586;13.284;2024-02-26T02:38:38;99960.31;;;2.98;79.08
85140;BME280;75501;52.586;13.284;2024-02-26T02:41:17;99959.25;;;2.99;79.16
85140;BME280;75501;52.586;13.284;2024-02-26T02:43:45;99965.16;;;2.91;79.75
85140;BME280;75501;52.586;13.284;2024-02-26T02:46:13;99955.50;;;2.95;79.65
85140;BME280;75501;52.586;13.284;2024-02-26T02:48:42;99964.09;;;2.87;79.88
85140;BME280;75501;52.586;13.284;2024-02-26T02:51:11;99960.88;;;2.80;79.95
85140;BME280;75501;52.586;13.284;2024-02-26T02:53:40;99963.03;;;2.83;80.18
85140;BME280;75501;52.586;13.284;2024-02-26T02:56:08;99961.94;;;2.74;80.10
85140;BME280;75501;52.586;13.284;2024-02-26T02:58:36;99960.88;;;2.80;80.09
85140;BME280;75501;52.586;13.284;2024-02-26T03:01:04;99960.63;;;2.76;80.28
85140;BME280;75501;52.586;13.284;2024-02-26T03:03:32;99968.66;;;2.66;80.70
85140;BME280;75501;52.586;13.284;2024-02-26T03:06:00;99966.25;;;2.75;80.65
85140;BME280;75501;52.586;13.284;2024-02-26T03:08:29;99965.97;;;2.71;80.45
85140;BME280;75501;52.586;13.284;2024-02-26T03:10:59;99970.25;;;2.77;80.15
85140;BME280;75501;52.586;13.284;2024-02-26T03:13:27;99971.06;;;2.78;80.08
85140;BME280;75501;52.586;13.284;2024-02-26T03:15:56;99973.75;;;2.63;80.32
85140;BME280;75501;52.586;13.284;2024-02-26T03:18:24;99982.63;;;2.58;81.53
85140;BME280;75501;52.586;13.284;2024-02-26T03:20:52;99976.44;;;2.68;81.27
85140;BME280;75501;52.586;13.284;2024-02-26T03:23:20;99985.59;;;2.72;81.09
85140;BME280;75501;52.586;13.284;2024-02-26T03:25:48;99982.66;;;2.83;80.55
85140;BME280;75501;52.586;13.284;2024-02-26T03:28:18;99978.06;;;2.79;80.47
85140;BME280;75501;52.586;13.284;2024-02-26T03:30:45;99974.56;;;2.78;80.68
85140;BME280;75501;52.586;13.284;2024-02-26T03:33:13;99969.75;;;2.85;80.53
85140;BME280;75501;52.586;13.284;2024-02-26T03:35:42;99967.06;;;2.85;80.59
85140;BME280;75501;52.586;13.284;2024-02-26T03:38:10;99961.41;;;2.77;80.82
85140;BME280;75501;52.586;13.284;2024-02-26T03:40:38;99964.63;;;2.89;80.44
85140;BME280;75501;52.586;13.284;2024-02-26T03:43:06;99971.88;;;2.88;80.97
85140;BME280;75501;52.586;13.284;2024-02-26T03:45:36;99969.47;;;2.92;80.77
85140;BME280;75501;52.586;13.284;2024-02-26T03:48:04;99971.09;;;2.93;80.80
85140;BME280;75501;52.586;13.284;2024-02-26T03:50:33;99978.06;;;2.89;80.99
85140;BME280;75501;52.586;13.284;2024-02-26T03:53:01;99969.22;;;2.93;81.33
85140;BME280;75501;52.586;13.284;2024-02-26T03:55:29;99974.03;;;2.86;81.74
85140;BME280;75501;52.586;13.284;2024-02-26T03:57:57;99986.94;;;2.89;81.93
85140;BME280;75501;52.586;13.284;2024-02-26T04:00:26;99993.38;;;2.68;82.38
85140;BME280;75501;52.586;13.284;2024-02-26T04:02:57;99996.03;;;2.73;82.46
85140;BME280;75501;52.586;13.284;2024-02-26T04:05:25;99990.44;;;2.80;82.13
85140;BME280;75501;52.586;13.284;2024-02-26T04:07:53;99999.00;;;2.82;82.11
85140;BME280;75501;52.586;13.284;2024-02-26T04:10:21;99993.63;;;2.92;81.50
85140;BME280;75501;52.586;13.284;2024-02-26T04:12:49;99995.00;;;2.89;81.46
85140;BME280;75501;52.586;13.284;2024-02-26T04:15:17;99994.19;;;2.89;81.16
85140;BME280;75501;52.586;13.284;2024-02-26T04:17:45;100001.72;;;2.97;80.92
85140;BME280;75501;52.586;13.284;2024-02-26T04:20:15;100007.09;;;2.87;81.06
85140;BME280;75501;52.586;13.284;2024-02-26T04:22:44;99999.00;;;2.92;80.85
85140;BME280;75501;52.586;13.284;2024-02-26T04:25:12;100001.44;;;2.98;80.19
85140;BME280;75501;52.586;13.284;2024-02-26T04:27:41;100002.50;;;2.77;80.96
85140;BME280;75501;52.586;13.284;2024-02-26T04:30:10;100006.53;;;2.80;81.02
85140;BME280;75501;52.586;13.284;2024-02-26T04:32:39;100006.81;;;2.83;80.71
85140;BME280;75501;52.586;13.284;2024-02-26T04:35:07;100012.72;;;2.85;80.91
85140;BME280;75501;52.586;13.284;2024-02-26T04:37:37;100024.53;;;2.94;80.76
85140;BME280;75501;52.586;13.284;2024-02-26T04:40:05;100015.41;;;2.75;81.05
85140;BME280;75501;52.586;13.284;2024-02-26T04:42:34;100019.16;;;2.69;81.15
85140;BME280;75501;52.586;13.284;2024-02-26T04:45:03;100023.44;;;2.75;81.36
85140;BME280;75501;52.586;13.284;2024-02-26T04:47:31;100023.69;;;2.74;81.07
85140;BME280;75501;52.586;13.284;2024-02-26T04:49:59;100023.69;;;2.64;81.81
85140;BME280;75501;52.586;13.284;2024-02-26T04:52:27;100021.03;;;2.69;81.24
85140;BME280;75501;52.586;13.284;2024-02-26T04:54:57;100026.91;;;2.61;81.92
85140;BME280;75501;52.586;13.284;2024-02-26T04:57:26;100019.94;;;2.70;81.93
85140;BME280;75501;52.586;13.284;2024-02-26T04:59:55;100026.66;;;2.67;81.34
85140;BME280;75501;52.586;13.284;2024-02-26T05:02:23;100026.94;;;2.71;81.10
85140;BME280;75501;52.586;13.284;2024-02-26T05:04:51;100026.66;;;2.77;81.40
85140;BME280;75501;52.586;13.284;2024-02-26T05:07:19;100029.88;;;2.74;81.61
85140;BME280;75501;52.586;13.284;2024-02-26T05:09:47;100039.00;;;2.63;81.63
85140;BME280;75501;52.586;13.284;2024-02-26T05:12:17;100043.28;;;2.59;81.90
85140;BME280;75501;52.586;13.284;2024-02-26T05:14:45;100051.66;;;2.73;81.61
85140;BME280;75501;52.586;13.284;2024-02-26T05:17:13;100047.88;;;2.69;81.32
85140;BME280;75501;52.586;13.284;2024-02-26T05:19:41;100042.25;;;2.65;81.75
85140;BME280;75501;52.586;13.284;2024-02-26T05:22:10;100048.97;;;2.73;81.42
85140;BME280;75501;52.586;13.284;2024-02-26T05:24:39;100055.09;;;2.63;81.38
85140;BME280;75501;52.586;13.284;2024-02-26T05:27:07;100055.91;;;2.59;81.59
85140;BME280;75501;52.586;13.284;2024-02-26T05:29:36;100057.53;;;2.65;81.51
85140;BME280;75501;52.586;13.284;2024-02-26T05:32:05;100054.84;;;2.55;82.00
85140;BME280;75501;52.586;13.284;2024-02-26T05:34:34;100054.81;;;2.49;81.83
85140;BME280;75501;52.586;13.284;2024-02-26T05:37:02;100058.03;;;2.51;82.04
85140;BME280;75501;52.586;13.284;2024-02-26T05:39:30;100067.44;;;2.54;81.54
85140;BME280;75501;52.586;13.284;2024-02-26T05:41:58;100069.56;;;2.52;81.85
85140;BME280;75501;52.586;13.284;2024-02-26T05:44:26;100069.28;;;2.43;81.94
85140;BME280;75501;52.586;13.284;2024-02-26T05:46:56;100068.22;;;2.49;81.42
85140;BME280;75501;52.586;13.284;2024-02-26T05:49:24;100063.09;;;2.43;81.60
85140;BME280;75501;52.586;13.284;2024-02-26T05:51:52;100070.31;;;2.37;82.03
85140;BME280;75501;52.586;13.284;2024-02-26T05:54:20;100057.44;;;2.34;82.24
85140;BME280;75501;52.586;13.284;2024-02-26T05:56:49;100070.84;;;2.34;82.26
85140;BME280;75501;52.586;13.284;2024-02-26T05:59:17;100068.69;;;2.31;82.31
85140;BME280;75501;52.586;13.284;2024-02-26T06:01:45;100080.78;;;2.34;82.46
85140;BME280;75501;52.586;13.284;2024-02-26T06:04:15;100085.94;;;2.40;82.55
85140;BME280;75501;52.586;13.284;2024-02-26T06:06:44;100082.16;;;2.36;82.13
85140;BME280;75501;52.586;13.284;2024-02-26T06:09:13;100084.22;;;2.24;82.34
85140;BME280;75501;52.586;13.284;2024-02-26T06:11:41;100085.38;;;2.38;82.12
85140;BME280;75501;52.586;13.284;2024-02-26T06:14:09;100084.84;;;2.41;82.26
85140;BME280;75501;52.586;13.284;2024-02-26T06:16:39;100088.56;;;2.35;82.06
85140;BME280;75501;52.586;13.284;2024-02-26T06:19:07;100092.34;;;2.39;82.62
85140;BME280;75501;52.586;13.284;2024-02-26T06:21:40;100088.59;;;2.40;82.40
85140;BME280;75501;52.586;13.284;2024-02-26T06:24:08;100089.63;;;2.34;82.09
85140;BME280;75501;52.586;13.284;2024-02-26T06:26:36;100098.25;;;2.36;82.58
85140;BME280;75501;52.586;13.284;2024-02-26T06:29:04;100090.44;;;2.35;82.52
85140;BME280;75501;52.586;13.284;2024-02-26T06:31:32;100092.91;;;2.46;82.24
85140;BME280;75501;52.586;13.284;2024-02-26T06:34:00;100095.31;;;2.48;82.36
85140;BME280;75501;52.586;13.284;2024-02-26T06:36:30;100097.25;;;2.58;82.02
85140;BME280;75501;52.586;13.284;2024-02-26T06:39:00;100102.38;;;2.64;81.69
85140;BME280;75501;52.586;13.284;2024-02-26T06:41:29;100104.03;;;2.85;81.46
85140;BME280;75501;52.586;13.284;2024-02-26T06:43:57;100111.28;;;2.85;80.78
85140;BME280;75501;52.586;13.284;2024-02-26T06:46:25;100101.59;;;2.84;81.35
85140;BME280;75501;52.586;13.284;2024-02-26T06:48:55;100106.47;;;2.92;80.92
85140;BME280;75501;52.586;13.284;2024-02-26T06:51:23;100113.72;;;3.01;80.68
85140;BME280;75501;52.586;13.284;2024-02-26T06:53:51;100114.00;;;3.05;80.64
85140;BME280;75501;52.586;13.284;2024-02-26T06:56:21;100118.59;;;3.10;80.46
85140;BME280;75501;52.586;13.284;2024-02-26T06:58:49;100117.50;;;3.16;80.14
85140;BME280;75501;52.586;13.284;2024-02-26T07:01:18;100125.34;;;3.22;79.72
85140;BME280;75501;52.586;13.284;2024-02-26T07:03:46;100122.88;;;3.16;80.12
85140;BME280;75501;52.586;13.284;2024-02-26T07:06:14;100122.63;;;3.07;80.65
85140;BME280;75501;52.586;13.284;2024-02-26T07:08:42;100134.72;;;3.30;79.87
85140;BME280;75501;52.586;13.284;2024-02-26T07:11:10;100135.81;;;3.24;79.71
85140;BME280;75501;52.586;13.284;2024-02-26T07:13:39;100148.72;;;3.32;79.52
85140;BME280;75501;52.586;13.284;2024-02-26T07:16:09;100148.47;;;3.38;79.33
85140;BME280;75501;52.586;13.284;2024-02-26T07:18:39;100149.28;;;3.54;79.33
85140;BME280;75501;52.586;13.284;2024-02-26T07:21:07;100150.88;;;3.60;79.03
85140;BME280;75501;52.586;13.284;2024-02-26T07:23:35;100152.50;;;3.71;78.81
85140;BME280;75501;52.586;13.284;2024-02-26T07:26:04;100147.34;;;3.90;78.46
85140;BME280;75501;52.586;13.284;2024-02-26T07:28:32;100153.00;;;4.04;77.86
85140;BME280;75501;52.586;13.284;2024-02-26T07:31:01;100157.31;;;3.99;78.03
85140;BME280;75501;52.586;13.284;2024-02-26T07:33:29;100160.28;;;3.98;78.35
85140;BME280;75501;52.586;13.284;2024-02-26T07:35:57;100147.56;;;4.19;77.96
85140;BME280;75501;52.586;13.284;2024-02-26T07:38:25;100158.09;;;4.20;78.34
85140;BME280;75501;52.586;13.284;2024-02-26T07:41:08;100156.91;;;4.51;78.13
85140;BME280;75501;52.586;13.284;2024-02-26T07:43:36;100148.00;;;4.56;77.89
85140;BME280;75501;52.586;13.284;2024-02-26T07:46:05;100149.59;;;4.57;78.31
85140;BME280;75501;52.586;13.284;2024-02-26T07:48:34;100149.03;;;4.70;78.35
85140;BME280;75501;52.586;13.284;2024-02-26T07:51:02;100148.00;;;4.56;78.88
85140;BME280;75501;52.586;13.284;2024-02-26T07:53:31;100154.22;;;4.57;79.19
85140;BME280;75501;52.586;13.284;2024-02-26T07:55:59;100151.44;;;4.72;78.81
85140;BME280;75501;52.586;13.284;2024-02-26T07:58:27;100140.34;;;4.83;78.43
85140;BME280;75501;52.586;13.284;2024-02-26T08:00:55;100137.53;;;5.03;77.84
85140;BME280;75501;52.586;13.284;2024-02-26T08:03:25;100140.00;;;4.95;78.21
85140;BME280;75501;52.586;13.284;2024-02-26T08:05:53;100142.81;;;5.19;77.44
85140;BME280;75501;52.586;13.284;2024-02-26T08:08:21;100145.28;;;5.15;77.16
85140;BME280;75501;52.586;13.284;2024-02-26T08:10:50;100139.56;;;5.22;76.83
85140;BME280;75501;52.586;13.284;2024-02-26T08:13:18;100147.88;;;5.30;76.72
85140;BME280;75501;52.586;13.284;2024-02-26T08:15:46;100149.53;;;5.60;75.97
85140;BME280;75501;52.586;13.284;2024-02-26T08:18:14;100148.03;;;5.49;75.81
85140;BME280;75501;52.586;13.284;2024-02-26T08:20:44;100143.94;;;5.51;75.62
85140;BME280;75501;52.586;13.284;2024-02-26T08:23:12;100156.88;;;5.55;75.81
85140;BME280;75501;52.586;13.284;2024-02-26T08:25:40;100160.50;;;5.74;74.98
85140;BME280;75501;52.586;13.284;2024-02-26T08:28:07;100154.38;;;5.97;74.27
85140;BME280;75501;52.586;13.284;2024-02-26T08:30:37;100156.88;;;6.17;73.33
85140;BME280;75501;52.586;13.284;2024-02-26T08:33:06;100169.41;;;6.32;72.51
85140;BME280;75501;52.586;13.284;2024-02-26T08:35:34;100161.28;;;6.37;72.12
85140;BME280;75501;52.586;13.284;2024-02-26T08:38:04;100166.59;;;6.42;72.21
85140;BME280;75501;52.586;13.284;2024-02-26T08:40:32;100167.47;;;6.61;72.46
85140;BME280;75501;52.586;13.284;2024-02-26T08:43:00;100159.50;;;6.93;71.83
85140;BME280;75501;52.586;13.284;2024-02-26T08:45:28;100162.06;;;6.61;70.93
85140;BME280;75501;52.586;13.284;2024-02-26T08:47:56;100155.81;;;6.66;71.66
85140;BME280;75501;52.586;13.284;2024-02-26T08:50:25;100157.59;;;6.94;70.96
85140;BME280;75501;52.586;13.284;2024-02-26T08:52:53;100157.06;;;6.92;70.53
85140;BME280;75501;52.586;13.284;2024-02-26T08:55:23;100151.53;;;7.02;70.40
85140;BME280;75501;52.586;13.284;2024-02-26T08:57:51;100153.88;;;6.90;70.22
85140;BME280;75501;52.586;13.284;2024-02-26T09:00:19;100147.31;;;7.15;69.85
85140;BME280;75501;52.586;13.284;2024-02-26T09:02:48;100150.28;;;7.13;70.10
85140;BME280;75501;52.586;13.284;2024-02-26T09:05:16;100143.16;;;7.22;69.84
85140;BME280;75501;52.586;13.284;2024-02-26T09:07:44;100151.75;;;7.43;69.53
85140;BME280;75501;52.586;13.284;2024-02-26T09:10:13;100146.28;;;7.80;67.97
85140;BME280;75501;52.586;13.284;2024-02-26T09:12:42;100152.22;;;7.82;68.19
85140;BME280;75501;52.586;13.284;2024-02-26T09:15:11;100156.56;;;7.97;67.38
85140;BME280;75501;52.586;13.284;2024-02-26T09:17:39;100156.97;;;8.04;66.88
85140;BME280;75501;52.586;13.284;2024-02-26T09:20:07;100146.38;;;8.21;66.42
85140;BME280;75501;52.586;13.284;2024-02-26T09:22:36;100150.25;;;8.15;66.33
85140;BME280;75501;52.586;13.284;2024-02-26T09:25:06;100155.78;;;8.24;66.76
85140;BME280;75501;52.586;13.284;2024-02-26T09:27:34;100154.44;;;8.40;66.49
85140;BME280;75501;52.586;13.284;2024-02-26T09:30:09;100159.00;;;8.26;66.00
85140;BME280;75501;52.586;13.284;2024-02-26T09:32:40;100160.66;;;8.40;65.61
85140;BME280;75501;52.586;13.284;2024-02-26T09:35:08;100168.50;;;8.28;65.86
85140;BME280;75501;52.586;13.284;2024-02-26T09:37:37;100164.06;;;8.73;65.08
85140;BME280;75501;52.586;13.284;2024-02-26T09:40:05;100171.38;;;9.00;64.34
85140;BME280;75501;52.586;13.284;2024-02-26T09:42:37;100169.66;;;9.04;64.04
85140;BME280;75501;52.586;13.284;2024-02-26T09:45:14;100168.72;;;9.22;63.51
85140;BME280;75501;52.586;13.284;2024-02-26T09:47:47;100168.00;;;9.30;63.22
85140;BME280;75501;52.586;13.284;2024-02-26T09:50:17;100162.91;;;9.51;62.38
85140;BME280;75501;52.586;13.284;2024-02-26T09:52:49;100165.41;;;9.25;63.18
85140;BME280;75501;52.586;13.284;2024-02-26T09:55:19;100164.41;;;9.21;63.84
85140;BME280;75501;52.586;13.284;2024-02-26T09:57:48;100168.72;;;9.22;63.27
85140;BME280;75501;52.586;13.284;2024-02-26T10:00:21;100178.06;;;9.30;63.21
85140;BME280;75501;52.586;13.284;2024-02-26T10:02:51;100173.63;;;9.34;63.11
85140;BME280;75501;52.586;13.284;2024-02-26T10:05:19;100168.34;;;9.51;62.42
85140;BME280;75501;52.586;13.284;2024-02-26T10:07:49;100175.44;;;9.61;62.53
85140;BME280;75501;52.586;13.284;2024-02-26T10:10:18;100180.81;;;9.52;62.38
85140;BME280;75501;52.586;13.284;2024-02-26T10:12:47;100185.47;;;9.74;61.87
85140;BME280;75501;52.586;13.284;2024-02-26T10:15:15;100188.28;;;9.91;61.41
85140;BME280;75501;52.586;13.284;2024-02-26T10:17:44;100185.69;;;9.86;61.65
85140;BME280;75501;52.586;13.284;2024-02-26T10:20:14;100184.25;;;9.88;61.55
85140;BME280;75501;52.586;13.284;2024-02-26T10:22:45;100184.69;;;10.04;61.19
85140;BME280;75501;52.586;13.284;2024-02-26T10:25:13;100174.56;;;9.96;61.54
85140;BME280;75501;52.586;13.284;2024-02-26T10:27:42;100186.69;;;9.90;61.42
85140;BME280;75501;52.586;13.284;2024-02-26T10:30:17;100179.69;;;9.97;61.43
85140;BME280;75501;52.586;13.284;2024-02-26T10:32:48;100185.34;;;10.10;60.99
85140;BME280;75501;52.586;13.284;2024-02-26T10:35:18;100181.00;;;10.22;60.59
85140;BME280;75501;52.586;13.284;2024-02-26T10:37:49;100184.25;;;10.33;60.52
85140;BME280;75501;52.586;13.284;2024-02-26T10:40:17;100187.91;;;10.28;60.41
85140;BME280;75501;52.586;13.284;2024-02-26T10:42:46;100179.34;;;10.43;59.88
85140;BME280;75501;52.586;13.284;2024-02-26T10:45:18;100186.47;;;10.62;59.12
85140;BME280;75501;52.586;13.284;2024-02-26T10:47:48;100186.00;;;10.68;58.88
85140;BME280;75501;52.586;13.284;2024-02-26T10:50:17;100192.66;;;10.93;58.73
85140;BME280;75501;52.586;13.284;2024-02-26T10:52:45;100185.97;;;11.08;56.41
85140;BME280;75501;52.586;13.284;2024-02-26T10:55:15;100180.00;;;11.06;57.02
85140;BME280;75501;52.586;13.284;2024-02-26T10:57:47;100179.72;;;11.24;56.22
85140;BME280;75501;52.586;13.284;2024-02-26T11:00:18;100178.63;;;11.25;56.45
85140;BME280;75501;52.586;13.284;2024-02-26T11:02:49;100181.66;;;11.15;57.13
85140;BME280;75501;52.586;13.284;2024-02-26T11:05:20;100181.78;;;11.10;56.07
85140;BME280;75501;52.586;13.284;2024-02-26T11:07:50;100183.41;;;11.28;56.42
85140;BME280;75501;52.586;13.284;2024-02-26T11:10:21;100174.94;;;11.38;56.17
85140;BME280;75501;52.586;13.284;2024-02-26T11:12:53;100173.34;;;11.29;55.13
85140;BME280;75501;52.586;13.284;2024-02-26T11:15:23;100176.00;;;10.94;55.34
85140;BME280;75501;52.586;13.284;2024-02-26T11:17:54;100184.19;;;10.94;55.72
85140;BME280;75501;52.586;13.284;2024-02-26T11:20:25;100187.13;;;11.32;54.92
85140;BME280;75501;52.586;13.284;2024-02-26T11:22:56;100178.94;;;11.67;54.01
85140;BME280;75501;52.586;13.284;2024-02-26T11:25:24;100179.91;;;11.62;53.99
85140;BME280;75501;52.586;13.284;2024-02-26T11:27:55;100183.91;;;11.39;54.70
85140;BME280;75501;52.586;13.284;2024-02-26T11:30:30;100178.28;;;11.27;54.42
85140;BME280;75501;52.586;13.284;2024-02-26T11:33:07;100187.28;;;11.36;53.95
85140;BME280;75501;52.586;13.284;2024-02-26T11:35:36;100184.88;;;11.52;52.80
85140;BME280;75501;52.586;13.284;2024-02-26T11:38:05;100184.72;;;11.39;53.66
85140;BME280;75501;52.586;13.284;2024-02-26T11:40:38;100179.75;;;11.33;53.92
85140;BME280;75501;52.586;13.284;2024-02-26T11:43:07;100188.25;;;11.40;53.96
85140;BME280;75501;52.586;13.284;2024-02-26T11:45:49;100183.44;;;11.45;52.79
85140;BME280;75501;52.586;13.284;2024-02-26T11:48:25;100195.63;;;11.65;51.70
85140;BME280;75501;52.586;13.284;2024-02-26T11:50:57;100190.78;;;11.45;51.67
85140;BME280;75501;52.586;13.284;2024-02-26T11:53:27;100190.81;;;11.36;51.45
85140;BME280;75501;52.586;13.284;2024-02-26T11:56:21;100186.50;;;11.44;50.97
85140;BME280;75501;52.586;13.284;2024-02-26T11:59:01;100184.09;;;11.85;50.36
85140;BME280;75501;52.586;13.284;2024-02-26T12:01:42;100188.38;;;12.12;49.26
85140;BME280;75501;52.586;13.284;2024-02-26T12:04:15;100184.88;;;12.03;49.62
85140;BME280;75501;52.586;13.284;2024-02-26T12:06:48;100189.69;;;12.06;50.46
85140;BME280;75501;52.586;13.284;2024-02-26T12:09:36;100191.75;;;12.18;49.96
85140;BME280;75501;52.586;13.284;2024-02-26T12:12:06;100194.28;;;12.23;49.47
85140;BME280;75501;52.586;13.284;2024-02-26T12:14:38;100189.22;;;11.87;51.07
85140;BME280;75501;52.586;13.284;2024-02-26T12:17:08;100191.75;;;12.09;50.57
85140;BME280;75501;52.586;13.284;2024-02-26T12:19:49;100190.91;;;12.26;49.54
85140;BME280;75501;52.586;13.284;2024-02-26T12:22:18;100200.13;;;12.04;48.44
85140;BME280;75501;52.586;13.284;2024-02-26T12:24:46;100191.44;;;12.02;49.21
85140;BME280;75501;52.586;13.284;2024-02-26T12:27:15;100182.75;;;12.17;49.33
85140;BME280;75501;52.586;13.284;2024-02-26T12:29:43;100184.66;;;12.25;48.85
85140;BME280;75501;52.586;13.284;2024-02-26T12:32:12;100185.13;;;12.36;48.39
85140;BME280;75501;52.586;13.284;2024-02-26T12:34:40;100194.31;;;12.14;48.19
85140;BME280;75501;52.586;13.284;2024-02-26T12:37:10;100187.28;;;11.96;48.45
85140;BME280;75501;52.586;13.284;2024-02-26T12:39:39;100187.91;;;12.02;48.27
85140;BME280;75501;52.586;13.284;2024-02-26T12:42:07;100182.16;;;11.94;48.25
85140;BME280;75501;52.586;13.284;2024-02-26T12:44:36;100192.41;;;12.06;47.70
85140;BME280;75501;52.586;13.284;2024-02-26T12:47:05;100187.69;;;12.32;47.19
85140;BME280;75501;52.586;13.284;2024-02-26T12:49:33;100192.28;;;12.49;46.08
85140;BME280;75501;52.586;13.284;2024-02-26T12:52:02;100193.91;;;12.50;45.75
85140;BME280;75501;52.586;13.284;2024-02-26T12:54:32;100200.97;;;12.42;45.75
85140;BME280;75501;52.586;13.284;2024-02-26T12:57:08;100201.00;;;12.72;44.60
85140;BME280;75501;52.586;13.284;2024-02-26T12:59:37;100186.69;;;12.37;43.47
85140;BME280;75501;52.586;13.284;2024-02-26T13:02:06;100190.13;;;12.25;43.96